createdAt,value
2023-01-22T00:02:09.955Z,102502.91
2023-01-22T00:04:37.341Z,102314.25
2023-01-22T00:07:03.844Z,102295.34
2023-01-22T00:09:30.874Z,102477.19
2023-01-22T00:11:57.847Z,102301.69
2023-01-22T00:14:24.413Z,102347.03
2023-01-22T00:16:50.903Z,102455.59
2023-01-22T00:19:17.300Z,102383.59
2023-01-22T00:21:43.664Z,102402.94
2023-01-22T00:24:10.107Z,102355.72
2023-01-22T00:26:37.033Z,102354.81
2023-01-22T00:29:04.100Z,102334.97
2023-01-22T00:31:30.638Z,102418.69
2023-01-22T00:33:57.228Z,102439.72
2023-01-22T00:36:23.616Z,102420.28
2023-01-22T00:38:50.724Z,102412.66
2023-01-22T00:41:19.179Z,102435.84
2023-01-22T00:43:47.189Z,102411.03
2023-01-22T00:46:18.074Z,102306.44
2023-01-22T00:48:49.531Z,102455.50
2023-01-22T00:51:16.599Z,102323.72
2023-01-22T00:53:46.413Z,102294.59
2023-01-22T00:56:14.423Z,102455.63
2023-01-22T00:58:41.696Z,102457.75
2023-01-22T01:01:08.286Z,102333.88
2023-01-22T01:03:39.827Z,102425.53
2023-01-22T01:06:15.456Z,102430.03
2023-01-22T01:08:43.520Z,102403.25
2023-01-22T01:11:13.861Z,102433.69
2023-01-22T01:13:42.767Z,102318.94
2023-01-22T01:16:18.300Z,102410.06
2023-01-22T01:18:45.222Z,102409.31
2023-01-22T01:21:12.225Z,102373.94
2023-01-22T01:23:39.571Z,102431.84
2023-01-22T01:26:09.130Z,102348.19
2023-01-22T01:28:37.388Z,102218.56
2023-01-22T01:31:08.585Z,102423.41
2023-01-22T01:33:35.333Z,102291.25
2023-01-22T01:36:04.291Z,102331.72
2023-01-22T01:38:31.741Z,102281.00
2023-01-22T01:40:59.763Z,102422.28
2023-01-22T01:43:26.224Z,102439.91
2023-01-22T01:45:52.641Z,102308.63
2023-01-22T01:48:28.899Z,102403.44
2023-01-22T01:51:02.652Z,102296.09
2023-01-22T01:53:29.488Z,102331.53
2023-01-22T01:55:57.996Z,102414.16
2023-01-22T01:58:28.645Z,102311.44
2023-01-22T02:01:00.920Z,102310.66
2023-01-22T02:03:29.556Z,102281.19
2023-01-22T02:05:56.793Z,102408.41
2023-01-22T02:08:23.867Z,102426.91
2023-01-22T02:10:54.125Z,102414.09
2023-01-22T02:13:25.611Z,102416.47
2023-01-22T02:15:52.174Z,102354.41
2023-01-22T02:18:18.589Z,102369.97
2023-01-22T02:20:53.370Z,102295.06
2023-01-22T02:23:19.796Z,102384.38
2023-01-22T02:25:49.276Z,102296.19
2023-01-22T02:28:15.935Z,102384.75
2023-01-22T02:30:43.109Z,102282.41
2023-01-22T02:33:09.828Z,102389.84
2023-01-22T02:35:38.553Z,102365.13
2023-01-22T02:38:05.361Z,102274.94
2023-01-22T02:40:31.776Z,102376.31
2023-01-22T02:42:58.120Z,102357.09
2023-01-22T02:45:24.612Z,102275.25
2023-01-22T02:47:51.090Z,102369.69
2023-01-22T02:50:18.388Z,102378.22
2023-01-22T02:52:44.938Z,102241.47
2023-01-22T02:55:11.316Z,102149.84
2023-01-22T02:57:37.731Z,102305.81
2023-01-22T03:00:05.109Z,102372.41
2023-01-22T03:02:31.550Z,102302.00
2023-01-22T03:05:03.293Z,102358.06
2023-01-22T03:07:42.277Z,102282.59
2023-01-22T03:10:18.670Z,102381.34
2023-01-22T03:13:05.556Z,102337.41
2023-01-22T03:15:51.388Z,102378.53
2023-01-22T03:18:36.040Z,102359.63
2023-01-22T03:21:20.590Z,102366.88
2023-01-22T03:23:55.846Z,102355.84
2023-01-22T03:26:23.726Z,102368.13
2023-01-22T03:28:53.290Z,102337.44
2023-01-22T03:31:19.919Z,102366.50
2023-01-22T03:33:46.646Z,102251.91
2023-01-22T03:36:15.435Z,102259.84
2023-01-22T03:38:42.439Z,102392.81
2023-01-22T03:41:12.945Z,102311.16
2023-01-22T03:43:39.676Z,102290.78
2023-01-22T03:46:08.023Z,102140.94
2023-01-22T03:48:34.433Z,102351.44
2023-01-22T03:51:08.993Z,102342.84
2023-01-22T03:53:36.182Z,102350.19
2023-01-22T03:56:05.644Z,102161.00
2023-01-22T03:58:32.437Z,102118.13
2023-01-22T04:01:06.842Z,102330.66
2023-01-22T04:03:34.064Z,102362.13
2023-01-22T04:06:00.881Z,102258.41
2023-01-22T04:08:29.432Z,102351.41
2023-01-22T04:10:56.928Z,102341.56
2023-01-22T04:13:24.484Z,102340.56
2023-01-22T04:15:51.078Z,102109.16
2023-01-22T04:18:17.610Z,102301.84
2023-01-22T04:20:44.140Z,102308.88
2023-01-22T04:23:10.557Z,102118.00
2023-01-22T04:25:37.331Z,102341.31
2023-01-22T04:28:04.179Z,102149.34
2023-01-22T04:30:30.888Z,102199.28
2023-01-22T04:32:57.396Z,102182.34
2023-01-22T04:35:26.232Z,102261.41
2023-01-22T04:37:52.618Z,102326.53
2023-01-22T04:40:20.587Z,102193.00
2023-01-22T04:42:47.496Z,102333.56
2023-01-22T04:45:16.761Z,102342.59
2023-01-22T04:47:44.680Z,102319.25
2023-01-22T04:50:22.479Z,102342.81
2023-01-22T04:52:53.071Z,102129.06
2023-01-22T04:55:19.796Z,102138.31
2023-01-22T04:57:46.784Z,102346.72
2023-01-22T05:00:13.533Z,102344.56
2023-01-22T05:02:42.301Z,102260.56
2023-01-22T05:05:09.525Z,102335.88
2023-01-22T05:07:36.355Z,102366.16
2023-01-22T05:10:02.838Z,102188.69
2023-01-22T05:12:29.263Z,102337.44
2023-01-22T05:14:55.686Z,102237.47
2023-01-22T05:17:22.147Z,102349.50
2023-01-22T05:19:48.584Z,102197.75
2023-01-22T05:22:15.023Z,102176.88
2023-01-22T05:24:41.462Z,102217.72
2023-01-22T05:27:07.891Z,102253.81
2023-01-22T05:29:34.233Z,102316.75
2023-01-22T05:32:00.752Z,102308.91
2023-01-22T05:34:27.188Z,102326.78
2023-01-22T05:36:53.659Z,102265.84
2023-01-22T05:39:21.893Z,102361.09
2023-01-22T05:41:49.453Z,102319.34
2023-01-22T05:44:15.803Z,102346.97
2023-01-22T05:46:42.443Z,102318.09
2023-01-22T05:49:08.930Z,102353.41
2023-01-22T05:51:36.142Z,102357.94
2023-01-22T05:54:02.569Z,102256.38
2023-01-22T05:56:30.208Z,102328.75
2023-01-22T05:58:56.621Z,102258.31
2023-01-22T06:01:23.257Z,102256.34
2023-01-22T06:03:49.678Z,102340.59
2023-01-22T06:06:16.129Z,102261.97
2023-01-22T06:08:42.491Z,102251.63
2023-01-22T06:11:12.888Z,102372.78
2023-01-22T06:13:40.249Z,102360.47
2023-01-22T06:16:07.563Z,102379.84
2023-01-22T06:18:34.420Z,102361.84
2023-01-22T06:21:02.646Z,102395.94
2023-01-22T06:23:29.675Z,102382.50
2023-01-22T06:25:57.945Z,102357.63
2023-01-22T06:28:25.061Z,102373.38
2023-01-22T06:30:53.194Z,102261.22
2023-01-22T06:33:19.735Z,102361.34
2023-01-22T06:35:46.184Z,102293.41
2023-01-22T06:38:12.544Z,102386.66
2023-01-22T06:40:38.905Z,102210.56
2023-01-22T06:43:06.618Z,102394.94
2023-01-22T06:45:33.011Z,102339.75
2023-01-22T06:47:59.398Z,102236.84
2023-01-22T06:50:25.855Z,102296.09
2023-01-22T06:52:52.342Z,102246.88
2023-01-22T06:55:18.768Z,102386.53
2023-01-22T06:57:45.128Z,102370.81
2023-01-22T07:00:11.839Z,102382.63
2023-01-22T07:02:38.221Z,102250.91
2023-01-22T07:05:04.808Z,102186.66
2023-01-22T07:07:31.183Z,102347.38
2023-01-22T07:09:57.530Z,102257.47
2023-01-22T07:12:24.185Z,102372.28
2023-01-22T07:14:50.560Z,102380.22
2023-01-22T07:17:16.936Z,102365.19
2023-01-22T07:19:43.337Z,102373.75
2023-01-22T07:22:09.814Z,102311.66
2023-01-22T07:24:36.257Z,102390.63
2023-01-22T07:27:02.970Z,102353.31
2023-01-22T07:29:29.449Z,102299.28
2023-01-22T07:31:55.918Z,102276.97
2023-01-22T07:34:22.683Z,102263.69
2023-01-22T07:36:49.322Z,102336.84
2023-01-22T07:39:15.744Z,102300.22
2023-01-22T07:41:42.108Z,102295.97
2023-01-22T07:44:08.656Z,102396.84
2023-01-22T07:46:35.740Z,102322.22
2023-01-22T07:49:02.115Z,102364.88
2023-01-22T07:51:28.452Z,102408.88
2023-01-22T07:53:54.996Z,102409.06
2023-01-22T07:56:21.631Z,102394.97
2023-01-22T07:58:48.178Z,102420.91
2023-01-22T08:01:15.658Z,102391.44
2023-01-22T08:03:42.250Z,102314.31
2023-01-22T08:06:15.442Z,102434.72
2023-01-22T08:08:42.639Z,102427.06
2023-01-22T08:11:09.293Z,102300.34
2023-01-22T08:13:35.751Z,102416.34
2023-01-22T08:16:02.238Z,102330.78
2023-01-22T08:18:28.910Z,102299.59
2023-01-22T08:20:55.399Z,102420.78
2023-01-22T08:23:22.138Z,102314.81
2023-01-22T08:25:48.618Z,102244.13
2023-01-22T08:28:14.995Z,102234.66
2023-01-22T08:30:46.365Z,102383.88
2023-01-22T08:33:15.549Z,102395.34
2023-01-22T08:35:41.942Z,102427.97
2023-01-22T08:38:08.400Z,102438.63
2023-01-22T08:40:37.736Z,102459.41
2023-01-22T08:43:04.267Z,102436.66
2023-01-22T08:45:30.634Z,102420.78
2023-01-22T08:47:59.293Z,102449.72
2023-01-22T08:50:27.700Z,102462.81
2023-01-22T08:52:57.299Z,102358.06
2023-01-22T08:55:24.556Z,102462.63
2023-01-22T08:57:55.388Z,102450.84
2023-01-22T09:00:22.945Z,102463.19
2023-01-22T09:02:49.541Z,102461.81
2023-01-22T09:05:15.989Z,102438.88
2023-01-22T09:07:42.445Z,102438.00
2023-01-22T09:10:12.206Z,102460.59
2023-01-22T09:12:39.900Z,102417.38
2023-01-22T09:15:07.697Z,102422.19
2023-01-22T09:17:34.057Z,102443.19
2023-01-22T09:20:00.375Z,102359.41
2023-01-22T09:22:26.696Z,102462.03
2023-01-22T09:24:54.733Z,102344.44
2023-01-22T09:27:21.373Z,102437.25
2023-01-22T09:29:47.709Z,102377.00
2023-01-22T09:32:14.157Z,102369.59
2023-01-22T09:34:40.516Z,102409.81
2023-01-22T09:37:07.904Z,102465.56
2023-01-22T09:39:34.219Z,102465.94
2023-01-22T09:42:03.947Z,102353.66
2023-01-22T09:44:40.626Z,102427.53
2023-01-22T09:47:12.450Z,102458.53
2023-01-22T09:49:45.650Z,102486.66
2023-01-22T09:52:12.194Z,102468.81
2023-01-22T09:54:38.570Z,102335.59
2023-01-22T09:57:13.019Z,102470.41
2023-01-22T10:03:42.846Z,102418.13
2023-01-22T10:06:09.112Z,102480.25
2023-01-22T10:08:59.530Z,102444.91
2023-01-22T10:11:26.053Z,102469.69
2023-01-22T10:13:58.469Z,102338.41
2023-01-22T10:16:25.464Z,102365.78
2023-01-22T10:18:51.716Z,102478.03
2023-01-22T10:21:25.397Z,102432.34
2023-01-22T10:23:55.903Z,102400.06
2023-01-22T10:26:27.531Z,102453.47
2023-01-22T10:28:59.130Z,102360.78
2023-01-22T10:31:31.103Z,102451.53
2023-01-22T10:34:03.992Z,102439.81
2023-01-22T10:36:31.729Z,102436.97
2023-01-22T10:39:10.936Z,102465.91
2023-01-22T10:41:37.718Z,102459.00
2023-01-22T10:44:17.539Z,102465.38
2023-01-22T10:46:46.315Z,102384.78
2023-01-22T10:49:18.786Z,102411.31
2023-01-22T10:52:26.869Z,102462.50
2023-01-22T10:54:59.512Z,102466.69
2023-01-22T10:57:33.544Z,102458.03
2023-01-22T11:00:18.572Z,102453.81
2023-01-22T11:02:47.752Z,102401.31
2023-01-22T11:05:32.618Z,102421.31
2023-01-22T11:08:14.303Z,102456.03
2023-01-22T11:10:48.976Z,102423.13
2023-01-22T11:13:20.519Z,102400.56
2023-01-22T11:16:12.247Z,102457.38
2023-01-22T11:18:42.729Z,102458.91
2023-01-22T11:21:33.877Z,102452.75
2023-01-22T11:24:09.257Z,102456.22
2023-01-22T11:26:50.944Z,102460.03
2023-01-22T11:29:34.079Z,102414.56
2023-01-22T11:32:37.300Z,102449.13
2023-01-22T11:35:06.667Z,102447.34
2023-01-22T11:37:48.737Z,102380.13
2023-01-22T11:40:21.396Z,102446.78
2023-01-22T11:43:25.411Z,102438.53
2023-01-22T11:46:25.024Z,102440.91
2023-01-22T11:49:22.207Z,102441.69
2023-01-22T11:52:03.944Z,102401.13
2023-01-22T11:54:49.377Z,102446.03
2023-01-22T11:57:51.123Z,102428.53
2023-01-22T12:00:32.885Z,102458.03
2023-01-22T12:03:58.242Z,102452.75
2023-01-22T12:06:45.295Z,102443.59
2023-01-22T12:09:20.115Z,102454.91
2023-01-22T12:12:05.776Z,102417.50
2023-01-22T12:14:54.918Z,102449.56
2023-01-22T12:17:32.864Z,102409.50
2023-01-22T12:20:08.286Z,102460.44
2023-01-22T12:22:44.143Z,102455.38
2023-01-22T12:25:19.347Z,102404.53
2023-01-22T12:28:00.034Z,102417.50
2023-01-22T12:30:57.918Z,102454.31
2023-01-22T12:33:28.632Z,102449.66
2023-01-22T12:35:57.984Z,102361.78
2023-01-22T12:38:39.644Z,102443.34
2023-01-22T12:41:23.060Z,102404.97
2023-01-22T12:43:56.476Z,102417.09
2023-01-22T12:46:38.021Z,102435.47
2023-01-22T12:49:16.342Z,102439.31
2023-01-22T12:51:48.277Z,102439.22
2023-01-22T12:54:36.422Z,102386.47
2023-01-22T12:57:24.946Z,102419.38
2023-01-22T12:59:52.464Z,102437.56
2023-01-22T13:02:37.826Z,102404.09
2023-01-22T13:05:38.202Z,102440.03
2023-01-22T13:08:24.839Z,102421.94
2023-01-22T13:11:26.544Z,102334.66
2023-01-22T13:14:13.703Z,102382.19
2023-01-22T13:16:41.571Z,102450.88
2023-01-22T13:19:20.033Z,102459.69
2023-01-22T13:21:47.904Z,102349.19
2023-01-22T13:24:17.554Z,102436.94
2023-01-22T13:27:00.245Z,102451.41
2023-01-22T13:29:33.053Z,102443.38
2023-01-22T13:32:05.752Z,102449.75
2023-01-22T13:34:32.509Z,102433.88
2023-01-22T13:36:59.186Z,102449.53
2023-01-22T13:39:29.932Z,102445.94
2023-01-22T13:42:00.301Z,102391.00
2023-01-22T13:44:37.589Z,102457.13
2023-01-22T13:47:04.684Z,102366.69
2023-01-22T13:49:34.750Z,102458.34
2023-01-22T13:52:06.645Z,102460.44
2023-01-22T13:54:56.897Z,102432.41
2023-01-22T13:57:23.349Z,102405.84
2023-01-22T14:00:01.054Z,102439.25
2023-01-22T14:02:35.115Z,102453.28
2023-01-22T14:05:01.990Z,102470.69
2023-01-22T14:07:34.580Z,102396.81
2023-01-22T14:10:18.390Z,102467.34
2023-01-22T14:12:44.955Z,102423.25
2023-01-22T14:15:20.465Z,102436.41
2023-01-22T14:17:49.020Z,102472.03
2023-01-22T14:20:17.128Z,102371.25
2023-01-22T14:22:43.742Z,102433.84
2023-01-22T14:25:10.418Z,102410.44
2023-01-22T14:27:43.733Z,102348.28
2023-01-22T14:30:14.495Z,102467.03
2023-01-22T14:32:42.378Z,102447.13
2023-01-22T14:35:16.342Z,102421.03
2023-01-22T14:37:42.831Z,102453.56
2023-01-22T14:40:12.867Z,102484.13
2023-01-22T14:42:39.756Z,102486.06
2023-01-22T14:45:07.289Z,102489.97
2023-01-22T14:47:34.683Z,102479.34
2023-01-22T14:50:02.262Z,102353.19
2023-01-22T14:52:28.697Z,102479.81
2023-01-22T14:54:55.979Z,102448.91
2023-01-22T14:57:23.592Z,102510.31
2023-01-22T14:59:50.136Z,102494.78
2023-01-22T15:02:17.035Z,102502.38
2023-01-22T15:04:44.967Z,102392.53
2023-01-22T15:07:12.187Z,102483.34
2023-01-22T15:09:39.562Z,102505.72
2023-01-22T15:12:07.118Z,102487.75
2023-01-22T15:14:33.450Z,102518.66
2023-01-22T15:17:03.275Z,102396.88
2023-01-22T15:19:38.954Z,102468.63
2023-01-22T15:22:07.199Z,102483.44
2023-01-22T15:24:34.777Z,102496.59
2023-01-22T15:27:01.162Z,102519.13
2023-01-22T15:29:27.649Z,102462.50
2023-01-22T15:31:54.124Z,102511.66
2023-01-22T15:34:20.555Z,102491.66
2023-01-22T15:36:46.880Z,102403.09
2023-01-22T15:39:13.263Z,102488.78
2023-01-22T15:41:40.014Z,102474.22
2023-01-22T15:44:07.165Z,102530.78
2023-01-22T15:46:36.838Z,102520.34
2023-01-22T15:49:05.131Z,102525.00
2023-01-22T15:51:32.054Z,102529.34
2023-01-22T15:54:01.782Z,102522.66
2023-01-22T15:56:30.722Z,102466.38
2023-01-22T15:58:58.491Z,102501.50
2023-01-22T16:01:26.359Z,102531.25
2023-01-22T16:03:53.288Z,102531.00
2023-01-22T16:06:25.222Z,102534.66
2023-01-22T16:08:53.958Z,102530.53
2023-01-22T16:11:21.480Z,102516.19
2023-01-22T16:13:48.076Z,102467.75
2023-01-22T16:16:20.808Z,102521.03
2023-01-22T16:18:48.564Z,102416.16
2023-01-22T16:21:17.354Z,102466.97
2023-01-22T16:23:45.715Z,102385.63
2023-01-22T16:26:18.801Z,102426.97
2023-01-22T16:28:47.850Z,102523.63
2023-01-22T16:31:17.472Z,102418.47
2023-01-22T16:33:50.181Z,102529.59
2023-01-22T16:36:18.606Z,102532.78
2023-01-22T16:39:16.811Z,102321.16
2023-01-22T16:41:43.349Z,102432.22
2023-01-22T16:44:26.159Z,102450.16
2023-01-22T16:47:07.634Z,102453.19
2023-01-22T16:49:34.654Z,102500.94
2023-01-22T16:52:20.854Z,102535.75
2023-01-22T16:54:49.464Z,102354.38
2023-01-22T16:57:16.523Z,102408.81
2023-01-22T16:59:43.198Z,102434.34
2023-01-22T17:02:15.488Z,102455.22
2023-01-22T17:04:41.905Z,102395.44
2023-01-22T17:07:13.572Z,102537.19
2023-01-22T17:09:47.077Z,102523.22
2023-01-22T17:12:13.571Z,102523.25
2023-01-22T17:14:40.133Z,102504.81
2023-01-22T17:17:07.906Z,102520.53
2023-01-22T17:19:35.822Z,102519.84
2023-01-22T17:22:07.957Z,102359.22
2023-01-22T17:24:34.383Z,102508.94
2023-01-22T17:27:02.570Z,102482.72
2023-01-22T17:29:38.477Z,102504.63
2023-01-22T17:32:05.682Z,102533.94
2023-01-22T17:34:32.114Z,102531.78
2023-01-22T17:36:58.510Z,102515.16
2023-01-22T17:39:25.227Z,102516.03
2023-01-22T17:41:51.719Z,102537.63
2023-01-22T17:44:18.138Z,102539.72
2023-01-22T17:46:44.469Z,102529.50
2023-01-22T17:49:11.160Z,102527.75
2023-01-22T17:51:37.981Z,102410.97
2023-01-22T17:54:05.925Z,102539.47
2023-01-22T17:56:35.153Z,102549.53
2023-01-22T17:59:06.298Z,102477.66
2023-01-22T18:01:34.922Z,102544.53
2023-01-22T18:04:04.808Z,102564.28
2023-01-22T18:06:31.774Z,102564.63
2023-01-22T18:08:58.436Z,102572.41
2023-01-22T18:11:28.108Z,102540.84
2023-01-22T18:13:59.766Z,102442.09
2023-01-22T18:16:29.567Z,102553.22
2023-01-22T18:18:58.184Z,102571.53
2023-01-22T18:21:24.928Z,102546.09
2023-01-22T18:23:51.866Z,102514.81
2023-01-22T18:26:22.643Z,102460.19
2023-01-22T18:28:56.516Z,102386.31
2023-01-22T18:31:27.503Z,102525.16
2023-01-22T18:33:56.413Z,102562.06
2023-01-22T18:36:28.172Z,102558.31
2023-01-22T18:38:58.153Z,102567.81
2023-01-22T18:41:26.072Z,102580.34
2023-01-22T18:43:57.581Z,102529.03
2023-01-22T18:46:26.152Z,102450.41
2023-01-22T18:48:55.071Z,102479.22
2023-01-22T18:51:22.385Z,102443.84
2023-01-22T18:53:49.226Z,102537.63
2023-01-22T18:56:16.034Z,102548.72
2023-01-22T18:58:44.604Z,102584.09
2023-01-22T19:01:17.151Z,102569.09
2023-01-22T19:03:47.380Z,102409.72
2023-01-22T19:06:16.939Z,102577.69
2023-01-22T19:08:46.326Z,102592.16
2023-01-22T19:11:14.336Z,102593.56
2023-01-22T19:13:42.230Z,102585.72
2023-01-22T19:16:10.941Z,102587.06
2023-01-22T19:18:40.047Z,102502.50
2023-01-22T19:21:11.327Z,102600.94
2023-01-22T19:23:38.125Z,102382.44
2023-01-22T19:26:13.467Z,102583.94
2023-01-22T19:28:39.918Z,102621.09
2023-01-22T19:31:18.973Z,102597.69
2023-01-22T19:33:47.015Z,102602.63
2023-01-22T19:36:14.108Z,102629.84
2023-01-22T19:38:40.566Z,102587.59
2023-01-22T19:41:07.387Z,102515.28
2023-01-22T19:43:34.468Z,102604.47
2023-01-22T19:46:10.186Z,102627.22
2023-01-22T19:48:37.713Z,102630.78
2023-01-22T19:51:11.346Z,102633.56
2023-01-22T19:53:38.549Z,102524.13
2023-01-22T19:56:13.914Z,102552.31
2023-01-22T19:58:40.619Z,102502.13
2023-01-22T20:01:11.229Z,102632.78
2023-01-22T20:03:37.653Z,102622.50
2023-01-22T20:06:05.982Z,102636.06
2023-01-22T20:08:33.281Z,102631.69
2023-01-22T20:11:01.030Z,102499.19
2023-01-22T20:13:27.834Z,102553.00
2023-01-22T20:15:54.244Z,102553.81
2023-01-22T20:18:20.857Z,102605.69
2023-01-22T20:20:54.424Z,102634.84
2023-01-22T20:23:22.547Z,102648.72
2023-01-22T20:25:50.094Z,102541.84
2023-01-22T20:28:18.175Z,102618.72
2023-01-22T20:30:45.786Z,102557.47
2023-01-22T20:33:12.159Z,102594.69
2023-01-22T20:35:42.449Z,102622.72
2023-01-22T20:38:09.048Z,102614.97
2023-01-22T20:40:39.049Z,102558.84
2023-01-22T20:43:05.924Z,102617.91
2023-01-22T20:45:32.333Z,102622.84
2023-01-22T20:47:58.708Z,102613.34
2023-01-22T20:50:25.042Z,102622.06
2023-01-22T20:52:53.591Z,102642.19
2023-01-22T20:55:20.959Z,102633.03
2023-01-22T20:57:47.499Z,102573.13
2023-01-22T21:00:14.396Z,102583.81
2023-01-22T21:02:40.835Z,102635.84
2023-01-22T21:05:08.190Z,102653.78
2023-01-22T21:07:34.801Z,102633.69
2023-01-22T21:10:01.203Z,102613.16
2023-01-22T21:12:27.624Z,102626.38
2023-01-22T21:14:55.709Z,102578.28
2023-01-22T21:17:22.170Z,102667.72
2023-01-22T21:19:48.625Z,102550.41
2023-01-22T21:22:14.992Z,102632.31
2023-01-22T21:24:41.408Z,102601.56
2023-01-22T21:27:07.823Z,102557.34
2023-01-22T21:29:34.264Z,102642.78
2023-01-22T21:32:00.809Z,102515.16
2023-01-22T21:34:28.202Z,102643.09
2023-01-22T21:36:55.176Z,102654.28
2023-01-22T21:39:24.565Z,102651.31
2023-01-22T21:41:51.593Z,102654.00
2023-01-22T21:44:38.463Z,102618.88
2023-01-22T21:47:05.137Z,102531.25
2023-01-22T21:49:32.908Z,102657.38
2023-01-22T21:52:02.248Z,102601.44
2023-01-22T21:54:41.083Z,102649.34
2023-01-22T21:57:11.090Z,102644.34
2023-01-22T21:59:37.455Z,102582.19
2023-01-22T22:02:05.422Z,102666.94
2023-01-22T22:04:32.009Z,102597.22
2023-01-22T22:06:58.485Z,102631.69
2023-01-22T22:09:27.672Z,102586.53
2023-01-22T22:12:02.659Z,102662.59
2023-01-22T22:14:29.703Z,102593.47
2023-01-22T22:16:56.146Z,102669.66
2023-01-22T22:19:23.565Z,102665.19
2023-01-22T22:21:51.005Z,102577.00
2023-01-22T22:24:18.336Z,102675.41
2023-01-22T22:26:44.753Z,102587.34
2023-01-22T22:29:11.073Z,102672.00
2023-01-22T22:31:37.692Z,102642.50
2023-01-22T22:34:04.825Z,102663.22
2023-01-22T22:36:32.169Z,102677.31
2023-01-22T22:39:00.047Z,102581.81
2023-01-22T22:41:30.268Z,102562.66
2023-01-22T22:43:57.083Z,102588.22
2023-01-22T22:46:29.456Z,102674.00
2023-01-22T22:48:57.618Z,102675.66
2023-01-22T22:51:30.531Z,102684.50
2023-01-22T22:53:59.629Z,102509.88
2023-01-22T22:56:27.209Z,102576.88
2023-01-22T22:58:54.428Z,102686.13
2023-01-22T23:01:23.193Z,102684.38
2023-01-22T23:03:50.351Z,102664.94
2023-01-22T23:06:19.304Z,102649.13
2023-01-22T23:08:52.098Z,102680.84
2023-01-22T23:11:20.562Z,102681.75
2023-01-22T23:13:49.369Z,102684.31
2023-01-22T23:16:18.859Z,102686.84
2023-01-22T23:18:47.003Z,102652.50
2023-01-22T23:21:16.248Z,102664.19
2023-01-22T23:23:43.549Z,102675.78
2023-01-22T23:26:14.458Z,102665.19
2023-01-22T23:28:40.878Z,102677.53
2023-01-22T23:31:13.567Z,102656.06
2023-01-22T23:33:40.901Z,102675.78
2023-01-22T23:36:13.899Z,102686.00
2023-01-22T23:38:40.789Z,102664.44
2023-01-22T23:41:08.950Z,102643.91
2023-01-22T23:43:35.984Z,102662.44
2023-01-22T23:46:06.766Z,102658.13
2023-01-22T23:48:33.122Z,102614.72
2023-01-22T23:51:00.595Z,102644.50
2023-01-22T23:53:27.383Z,102633.31
2023-01-22T23:56:01.028Z,102687.66
2023-01-22T23:58:28.337Z,102682.78
